createdAt,value
2022-11-08T00:00:24.101Z,98.45
2022-11-08T00:02:26.941Z,98.79
2022-11-08T00:04:30.100Z,98.40
2022-11-08T00:06:51.753Z,98.65
2022-11-08T00:09:12.892Z,98.69
2022-11-08T00:11:34.128Z,98.05
2022-11-08T00:13:55.220Z,98.03
2022-11-08T00:16:01.003Z,98.29
2022-11-08T00:18:04.007Z,98.52
2022-11-08T00:20:07.624Z,97.75
2022-11-08T00:22:11.557Z,98.46
2022-11-08T00:24:14.254Z,98.59
2022-11-08T00:26:17.078Z,98.28
2022-11-08T00:28:19.933Z,98.34
2022-11-08T00:30:22.717Z,98.15
2022-11-08T00:32:26.202Z,98.95
2022-11-08T00:34:28.856Z,98.08
2022-11-08T00:36:31.489Z,98.52
2022-11-08T00:38:34.074Z,98.44
2022-11-08T00:40:36.691Z,98.60
2022-11-08T00:42:39.333Z,98.34
2022-11-08T00:44:42.174Z,98.38
2022-11-08T00:46:45.234Z,98.25
2022-11-08T00:48:47.871Z,98.70
2022-11-08T00:50:50.527Z,98.75
2022-11-08T00:52:53.127Z,98.83
2022-11-08T00:54:55.898Z,98.76
2022-11-08T00:56:58.587Z,98.89
2022-11-08T00:59:01.431Z,98.88
2022-11-08T01:01:16.015Z,98.69
2022-11-08T01:03:21.844Z,99.24
2022-11-08T01:05:24.454Z,99.17
2022-11-08T01:07:27.106Z,99.27
2022-11-08T01:09:29.788Z,99.52
2022-11-08T01:11:32.522Z,99.51
2022-11-08T01:13:35.618Z,98.98
2022-11-08T01:15:41.723Z,99.51
2022-11-08T01:17:44.335Z,99.15
2022-11-08T01:19:47.011Z,100.00
2022-11-08T01:21:49.644Z,99.62
2022-11-08T01:23:54.423Z,100.00
2022-11-08T01:25:57.074Z,98.78
2022-11-08T01:27:59.663Z,99.76
2022-11-08T01:30:02.331Z,99.99
2022-11-08T01:32:06.186Z,99.51
2022-11-08T01:34:09.207Z,99.86
2022-11-08T01:36:15.586Z,100.00
2022-11-08T01:38:18.418Z,100.00
2022-11-08T01:40:21.308Z,100.00
2022-11-08T01:42:31.903Z,100.00
2022-11-08T01:44:34.527Z,100.00
2022-11-08T01:46:44.641Z,100.00
2022-11-08T01:49:00.890Z,99.27
2022-11-08T01:51:03.841Z,99.85
2022-11-08T01:53:06.426Z,99.75
2022-11-08T01:55:30.516Z,99.62
2022-11-08T01:57:44.437Z,100.00
2022-11-08T01:59:51.338Z,99.84
2022-11-08T02:01:54.077Z,100.00
2022-11-08T02:03:58.085Z,100.00
2022-11-08T02:06:02.035Z,100.00
2022-11-08T02:08:27.744Z,100.00
2022-11-08T02:10:35.015Z,100.00
2022-11-08T02:12:37.726Z,100.00
2022-11-08T02:14:40.387Z,100.00
2022-11-08T02:16:43.066Z,100.00
2022-11-08T02:18:48.151Z,100.00
2022-11-08T02:21:12.153Z,100.00
2022-11-08T02:23:23.717Z,100.00
2022-11-08T02:25:27.264Z,100.00
2022-11-08T02:27:29.902Z,100.00
2022-11-08T02:29:36.911Z,100.00
2022-11-08T02:31:39.507Z,100.00
2022-11-08T02:33:42.911Z,100.00
2022-11-08T02:35:49.651Z,100.00
2022-11-08T02:37:52.414Z,100.00
2022-11-08T02:39:55.094Z,100.00
2022-11-08T02:41:57.657Z,100.00
2022-11-08T02:44:00.306Z,100.00
2022-11-08T02:46:03.000Z,100.00
2022-11-08T02:48:06.047Z,100.00
2022-11-08T02:50:09.126Z,100.00
2022-11-08T02:52:11.767Z,100.00
2022-11-08T02:54:14.392Z,100.00
2022-11-08T02:56:17.338Z,100.00
2022-11-08T02:58:20.525Z,100.00
2022-11-08T03:00:23.540Z,100.00
2022-11-08T03:02:26.277Z,100.00
2022-11-08T03:04:29.002Z,100.00
2022-11-08T03:06:31.646Z,100.00
2022-11-08T03:08:34.294Z,100.00
2022-11-08T03:10:36.877Z,100.00
2022-11-08T03:12:39.998Z,100.00
2022-11-08T03:14:42.600Z,100.00
2022-11-08T03:16:45.200Z,100.00
2022-11-08T03:18:47.874Z,100.00
2022-11-08T03:20:50.451Z,100.00
2022-11-08T03:23:01.149Z,100.00
2022-11-08T03:25:04.152Z,100.00
2022-11-08T03:27:07.107Z,100.00
2022-11-08T03:29:09.921Z,100.00
2022-11-08T03:31:12.517Z,100.00
2022-11-08T03:33:15.093Z,100.00
2022-11-08T03:35:17.861Z,100.00
2022-11-08T03:37:20.616Z,100.00
2022-11-08T03:39:23.279Z,100.00
2022-11-08T03:41:26.199Z,100.00
2022-11-08T03:43:28.807Z,100.00
2022-11-08T03:45:31.450Z,100.00
2022-11-08T03:47:41.180Z,100.00
2022-11-08T03:49:43.817Z,100.00
2022-11-08T03:51:46.483Z,100.00
2022-11-08T03:53:49.011Z,100.00
2022-11-08T03:55:51.631Z,100.00
2022-11-08T03:57:55.045Z,100.00
2022-11-08T03:59:57.675Z,100.00
2022-11-08T04:02:00.384Z,100.00
2022-11-08T04:04:03.340Z,100.00
2022-11-08T04:06:06.234Z,100.00
2022-11-08T04:08:08.906Z,100.00
2022-11-08T04:10:12.714Z,100.00
2022-11-08T04:12:33.917Z,100.00
2022-11-08T04:14:54.890Z,100.00
2022-11-08T04:16:57.474Z,100.00
2022-11-08T04:19:33.053Z,100.00
2022-11-08T04:21:35.760Z,100.00
2022-11-08T04:23:38.523Z,100.00
2022-11-08T04:25:41.570Z,100.00
2022-11-08T04:27:44.240Z,100.00
2022-11-08T04:29:46.825Z,100.00
2022-11-08T04:31:49.428Z,100.00
2022-11-08T04:33:52.345Z,100.00
2022-11-08T04:35:55.067Z,100.00
2022-11-08T04:38:00.096Z,100.00
2022-11-08T04:40:02.715Z,100.00
2022-11-08T04:42:05.501Z,100.00
2022-11-08T04:44:09.368Z,100.00
2022-11-08T04:46:17.365Z,100.00
2022-11-08T04:48:20.352Z,100.00
2022-11-08T04:50:23.378Z,100.00
2022-11-08T04:52:26.000Z,100.00
2022-11-08T04:54:28.615Z,100.00
2022-11-08T04:56:32.421Z,100.00
2022-11-08T04:58:40.858Z,100.00
2022-11-08T05:00:43.572Z,100.00
2022-11-08T05:02:46.336Z,100.00
2022-11-08T05:04:49.076Z,100.00
2022-11-08T05:06:51.757Z,100.00
2022-11-08T05:08:56.196Z,100.00
2022-11-08T05:11:04.261Z,100.00
2022-11-08T05:13:06.927Z,100.00
2022-11-08T05:15:10.113Z,100.00
2022-11-08T05:17:12.952Z,100.00
2022-11-08T05:19:35.427Z,100.00
2022-11-08T05:21:56.805Z,100.00
2022-11-08T05:24:00.040Z,100.00
2022-11-08T05:26:02.756Z,100.00
2022-11-08T05:28:05.391Z,100.00
2022-11-08T05:30:08.410Z,100.00
2022-11-08T05:32:11.389Z,100.00
2022-11-08T05:34:14.069Z,100.00
2022-11-08T05:36:17.048Z,100.00
2022-11-08T05:38:20.511Z,100.00
2022-11-08T05:40:23.405Z,100.00
2022-11-08T05:42:26.116Z,100.00
2022-11-08T05:44:28.692Z,100.00
2022-11-08T05:46:31.311Z,100.00
2022-11-08T05:48:34.056Z,100.00
2022-11-08T05:50:37.362Z,100.00
2022-11-08T05:52:40.448Z,100.00
2022-11-08T05:54:43.130Z,100.00
2022-11-08T05:56:45.734Z,100.00
2022-11-08T05:58:48.504Z,99.85
2022-11-08T06:00:51.356Z,99.99
2022-11-08T06:02:54.458Z,100.00
2022-11-08T06:04:57.348Z,99.95
2022-11-08T06:07:00.049Z,99.51
2022-11-08T06:09:02.728Z,99.49
2022-11-08T06:11:07.451Z,99.46
2022-11-08T06:13:11.039Z,99.05
2022-11-08T06:15:14.443Z,99.02
2022-11-08T06:17:17.137Z,98.89
2022-11-08T06:19:19.833Z,99.36
2022-11-08T06:21:23.317Z,98.95
2022-11-08T06:23:26.585Z,99.20
2022-11-08T06:25:29.230Z,98.65
2022-11-08T06:27:32.261Z,98.48
2022-11-08T06:29:34.954Z,98.53
2022-11-08T06:31:42.679Z,98.19
2022-11-08T06:33:45.909Z,98.24
2022-11-08T06:35:48.509Z,98.02
2022-11-08T06:37:51.239Z,97.36
2022-11-08T06:39:53.929Z,97.53
2022-11-08T06:41:56.554Z,97.07
2022-11-08T06:43:59.489Z,96.97
2022-11-08T06:46:02.725Z,96.89
2022-11-08T06:48:07.126Z,96.75
2022-11-08T06:50:10.131Z,96.78
2022-11-08T06:52:13.009Z,96.84
2022-11-08T06:54:17.938Z,96.69
2022-11-08T06:56:20.888Z,96.08
2022-11-08T06:58:23.476Z,95.60
2022-11-08T07:00:26.706Z,95.71
2022-11-08T07:02:29.678Z,95.69
2022-11-08T07:04:32.682Z,95.82
2022-11-08T07:06:35.442Z,95.73
2022-11-08T07:08:38.105Z,95.56
2022-11-08T07:10:40.939Z,95.98
2022-11-08T07:12:43.552Z,96.02
2022-11-08T07:14:46.126Z,96.17
2022-11-08T07:16:49.230Z,96.30
2022-11-08T07:18:52.005Z,95.74
2022-11-08T07:20:59.955Z,96.08
2022-11-08T07:23:02.790Z,95.79
2022-11-08T07:25:05.988Z,96.15
2022-11-08T07:27:08.696Z,96.08
2022-11-08T07:29:15.821Z,96.39
2022-11-08T07:31:18.883Z,96.28
2022-11-08T07:33:22.146Z,96.66
2022-11-08T07:35:27.877Z,96.65
2022-11-08T07:37:30.612Z,97.03
2022-11-08T07:39:33.245Z,96.80
2022-11-08T07:41:35.927Z,96.76
2022-11-08T07:43:38.549Z,96.52
2022-11-08T07:45:41.931Z,96.37
2022-11-08T07:47:44.575Z,96.14
2022-11-08T07:49:47.135Z,95.89
2022-11-08T07:51:49.800Z,95.88
2022-11-08T07:53:52.536Z,95.74
2022-11-08T07:55:55.460Z,95.70
2022-11-08T07:58:02.321Z,95.14
2022-11-08T08:00:07.841Z,95.28
2022-11-08T08:02:14.834Z,95.43
2022-11-08T08:04:17.538Z,94.93
2022-11-08T08:06:20.363Z,94.95
2022-11-08T08:08:23.324Z,95.44
2022-11-08T08:10:27.667Z,94.85
2022-11-08T08:12:30.377Z,94.46
2022-11-08T08:14:32.990Z,94.14
2022-11-08T08:16:37.053Z,94.72
2022-11-08T08:18:39.703Z,94.75
2022-11-08T08:20:42.316Z,94.61
2022-11-08T08:22:49.084Z,94.68
2022-11-08T08:24:51.691Z,94.67
2022-11-08T08:26:55.132Z,94.49
2022-11-08T08:28:57.867Z,94.12
2022-11-08T08:31:00.645Z,94.17
2022-11-08T08:33:27.492Z,94.69
2022-11-08T08:35:30.919Z,94.14
2022-11-08T08:37:33.603Z,93.97
2022-11-08T08:39:36.309Z,93.71
2022-11-08T08:41:38.972Z,93.63
2022-11-08T08:43:41.830Z,93.37
2022-11-08T08:45:44.793Z,93.18
2022-11-08T08:47:55.783Z,93.44
2022-11-08T08:49:59.172Z,93.03
2022-11-08T08:52:02.328Z,93.55
2022-11-08T08:54:06.277Z,93.14
2022-11-08T08:56:09.630Z,92.76
2022-11-08T08:58:12.484Z,92.98
2022-11-08T09:02:41.497Z,92.65
2022-11-08T09:04:45.990Z,92.29
2022-11-08T09:06:49.480Z,92.31
2022-11-08T09:08:52.858Z,92.47
2022-11-08T09:10:58.247Z,92.14
2022-11-08T09:13:02.576Z,92.53
2022-11-08T09:15:07.238Z,92.33
2022-11-08T09:17:10.454Z,91.91
2022-11-08T09:19:13.614Z,92.49
2022-11-08T09:21:16.778Z,92.34
2022-11-08T09:23:20.247Z,92.35
2022-11-08T09:25:23.196Z,92.21
2022-11-08T09:27:28.542Z,92.46
2022-11-08T09:29:32.178Z,92.88
2022-11-08T09:31:35.009Z,92.33
2022-11-08T09:33:39.693Z,92.55
2022-11-08T09:35:48.714Z,92.20
2022-11-08T09:37:54.115Z,92.28
2022-11-08T09:39:56.817Z,92.19
2022-11-08T09:42:15.425Z,92.12
2022-11-08T09:44:40.683Z,92.73
2022-11-08T09:46:52.869Z,92.22
2022-11-08T09:48:58.898Z,92.34
2022-11-08T09:51:09.799Z,92.37
2022-11-08T09:53:24.404Z,92.51
2022-11-08T09:55:50.291Z,92.74
2022-11-08T09:57:58.929Z,92.40
2022-11-08T10:00:06.721Z,92.50
2022-11-08T10:02:18.212Z,92.17
2022-11-08T10:04:26.383Z,92.50
2022-11-08T10:07:02.173Z,92.46
2022-11-08T10:09:31.826Z,92.52
2022-11-08T10:12:09.902Z,92.22
2022-11-08T10:14:19.810Z,92.04
2022-11-08T10:16:28.170Z,91.68
2022-11-08T10:19:02.587Z,91.95
2022-11-08T10:21:23.514Z,91.82
2022-11-08T10:23:40.364Z,92.03
2022-11-08T10:25:53.906Z,91.83
2022-11-08T10:28:00.291Z,91.65
2022-11-08T10:30:07.629Z,92.02
2022-11-08T10:32:21.681Z,92.21
2022-11-08T10:34:28.406Z,92.60
2022-11-08T10:36:58.395Z,91.78
2022-11-08T10:39:09.721Z,91.86
2022-11-08T10:41:26.538Z,91.77
2022-11-08T10:43:41.716Z,91.95
2022-11-08T10:45:44.347Z,92.62
2022-11-08T10:47:47.597Z,92.86
2022-11-08T10:49:50.977Z,92.72
2022-11-08T10:51:56.409Z,93.03
2022-11-08T10:53:59.131Z,92.97
2022-11-08T10:56:04.431Z,93.10
2022-11-08T10:58:30.096Z,93.06
2022-11-08T11:00:33.735Z,92.95
2022-11-08T11:02:37.100Z,93.04
2022-11-08T11:04:39.879Z,92.84
2022-11-08T11:06:42.562Z,92.34
2022-11-08T11:08:55.672Z,93.29
2022-11-08T11:11:22.904Z,93.22
2022-11-08T11:13:29.501Z,93.12
2022-11-08T11:15:56.205Z,93.37
2022-11-08T11:17:58.883Z,92.67
2022-11-08T11:20:01.944Z,92.50
2022-11-08T11:22:08.221Z,92.76
2022-11-08T11:24:19.361Z,93.21
2022-11-08T11:27:01.060Z,93.14
2022-11-08T11:29:06.763Z,93.30
2022-11-08T11:31:17.206Z,93.16
2022-11-08T11:33:26.176Z,93.15
2022-11-08T11:35:44.340Z,93.06
2022-11-08T11:37:48.800Z,93.40
2022-11-08T11:40:00.339Z,93.28
2022-11-08T11:42:39.325Z,92.63
2022-11-08T11:44:59.015Z,92.68
2022-11-08T11:47:14.871Z,92.47
2022-11-08T11:49:21.142Z,92.75
2022-11-08T11:51:28.784Z,92.50
2022-11-08T11:53:33.427Z,92.88
2022-11-08T11:55:47.181Z,92.88
2022-11-08T11:58:15.188Z,93.21
2022-11-08T12:00:18.328Z,92.95
2022-11-08T12:02:29.897Z,93.09
2022-11-08T12:05:06.763Z,93.20
2022-11-08T12:07:15.023Z,93.78
2022-11-08T12:09:45.785Z,93.79
2022-11-08T12:12:29.958Z,94.00
2022-11-08T12:14:55.772Z,93.73
2022-11-08T12:17:43.009Z,94.05
2022-11-08T12:19:48.295Z,94.10
2022-11-08T12:22:04.118Z,94.43
2022-11-08T12:24:19.626Z,94.35
2022-11-08T12:26:50.449Z,94.35
2022-11-08T12:29:26.404Z,94.34
2022-11-08T12:31:50.656Z,94.19
2022-11-08T12:34:03.757Z,94.59
2022-11-08T12:36:27.005Z,94.10
2022-11-08T12:38:47.477Z,94.71
2022-11-08T12:41:05.040Z,94.75
2022-11-08T12:43:35.141Z,94.87
2022-11-08T12:45:55.708Z,94.75
2022-11-08T12:47:58.481Z,94.98
2022-11-08T12:50:24.067Z,95.69
2022-11-08T12:52:42.828Z,95.80
2022-11-08T12:54:53.919Z,95.58
2022-11-08T12:57:02.766Z,95.90
2022-11-08T12:59:18.673Z,95.65
2022-11-08T13:01:23.267Z,96.06
2022-11-08T13:03:51.246Z,96.24
2022-11-08T13:06:15.317Z,96.01
2022-11-08T13:08:31.760Z,96.19
2022-11-08T13:10:48.720Z,96.29
2022-11-08T13:13:23.892Z,96.61
2022-11-08T13:15:28.354Z,96.30
2022-11-08T13:17:31.761Z,96.36
2022-11-08T13:19:49.895Z,96.34
2022-11-08T13:21:52.629Z,96.28
2022-11-08T13:24:42.742Z,96.63
2022-11-08T13:26:42.196Z,96.67
2022-11-08T13:28:46.056Z,96.96
2022-11-08T13:31:00.512Z,96.15
2022-11-08T13:33:29.303Z,96.85
2022-11-08T13:35:36.913Z,97.07
2022-11-08T13:37:53.774Z,96.77
2022-11-08T13:40:21.193Z,96.83
2022-11-08T13:42:23.706Z,97.10
2022-11-08T13:44:59.860Z,97.04
2022-11-08T13:47:02.586Z,97.16
2022-11-08T13:49:15.708Z,97.44
2022-11-08T13:51:34.646Z,97.23
2022-11-08T13:53:51.614Z,97.29
2022-11-08T13:56:06.940Z,97.40
2022-11-08T13:58:42.789Z,97.39
2022-11-08T14:00:47.285Z,97.39
2022-11-08T14:02:49.993Z,97.59
2022-11-08T14:04:54.724Z,97.72
2022-11-08T14:07:25.815Z,97.77
2022-11-08T14:09:47.211Z,98.08
2022-11-08T14:12:16.308Z,97.56
2022-11-08T14:14:36.415Z,97.51
2022-11-08T14:16:59.517Z,97.87
2022-11-08T14:19:37.886Z,97.86
2022-11-08T14:21:48.172Z,97.75
2022-11-08T14:23:51.430Z,97.65
2022-11-08T14:26:00.924Z,97.39
2022-11-08T14:28:04.864Z,97.67
2022-11-08T14:30:19.435Z,97.60
2022-11-08T14:32:22.101Z,97.77
2022-11-08T14:34:36.574Z,97.95
2022-11-08T14:36:45.195Z,97.86
2022-11-08T14:39:03.416Z,97.60
2022-11-08T14:41:07.542Z,97.83
2022-11-08T14:43:12.351Z,97.36
2022-11-08T14:45:20.708Z,97.57
2022-11-08T14:47:31.805Z,97.36
2022-11-08T14:49:36.772Z,97.49
2022-11-08T14:51:40.574Z,97.42
2022-11-08T14:53:49.255Z,97.42
2022-11-08T14:56:18.538Z,97.00
2022-11-08T14:58:21.362Z,96.99
2022-11-08T15:00:29.353Z,97.45
2022-11-08T15:02:33.280Z,97.38
2022-11-08T15:04:40.738Z,97.39
2022-11-08T15:06:56.643Z,97.36
2022-11-08T15:08:59.511Z,97.27
2022-11-08T15:11:08.076Z,97.38
2022-11-08T15:13:11.787Z,97.68
2022-11-08T15:15:30.594Z,97.22
2022-11-08T15:17:37.328Z,97.50
2022-11-08T15:19:43.203Z,97.48
2022-11-08T15:21:51.890Z,98.00
2022-11-08T15:24:11.504Z,97.63
2022-11-08T15:26:27.445Z,97.70
2022-11-08T15:28:34.455Z,97.75
2022-11-08T15:30:39.451Z,97.91
2022-11-08T15:32:42.571Z,97.75
2022-11-08T15:34:48.694Z,97.90
2022-11-08T15:36:52.275Z,97.95
2022-11-08T15:38:55.052Z,97.95
2022-11-08T15:41:00.955Z,97.85
2022-11-08T15:43:04.245Z,98.03
2022-11-08T15:45:29.142Z,97.81
2022-11-08T15:47:43.491Z,97.88
2022-11-08T15:49:46.077Z,98.03
2022-11-08T15:51:50.544Z,97.66
2022-11-08T15:53:53.223Z,97.76
2022-11-08T15:56:04.958Z,97.51
2022-11-08T15:58:23.016Z,97.55
2022-11-08T16:00:28.816Z,97.62
2022-11-08T16:02:31.453Z,97.66
2022-11-08T16:04:34.035Z,97.77
2022-11-08T16:06:36.653Z,97.42
2022-11-08T16:08:40.366Z,97.51
2022-11-08T16:10:46.626Z,97.35
2022-11-08T16:12:49.231Z,97.46
2022-11-08T16:14:52.221Z,97.14
2022-11-08T16:16:54.907Z,97.14
2022-11-08T16:18:57.505Z,96.92
2022-11-08T16:21:00.400Z,96.92
2022-11-08T16:23:08.721Z,96.45
2022-11-08T16:25:11.392Z,96.60
2022-11-08T16:27:15.527Z,96.87
2022-11-08T16:29:24.069Z,96.91
2022-11-08T16:31:26.609Z,96.78
2022-11-08T16:33:31.278Z,96.92
2022-11-08T16:35:34.058Z,96.82
2022-11-08T16:37:37.995Z,96.97
2022-11-08T16:39:40.532Z,97.29
2022-11-08T16:41:43.368Z,97.32
2022-11-08T16:43:46.253Z,97.71
2022-11-08T16:46:04.884Z,97.63
2022-11-08T16:48:18.479Z,98.02
2022-11-08T16:50:26.437Z,98.14
2022-11-08T16:52:29.091Z,97.98
2022-11-08T16:54:31.677Z,98.44
2022-11-08T16:56:34.323Z,98.11
2022-11-08T16:58:37.045Z,97.99
2022-11-08T17:00:41.898Z,97.72
2022-11-08T17:02:48.273Z,98.00
2022-11-08T17:04:50.904Z,98.02
2022-11-08T17:06:53.632Z,97.71
2022-11-08T17:08:56.378Z,98.36
2022-11-08T17:10:58.970Z,98.32
2022-11-08T17:13:01.913Z,98.48
2022-11-08T17:15:04.873Z,98.54
2022-11-08T17:17:07.611Z,98.45
2022-11-08T17:19:10.329Z,98.93
2022-11-08T17:21:43.069Z,98.53
2022-11-08T17:23:37.633Z,98.72
2022-11-08T17:25:43.132Z,98.65
2022-11-08T17:27:46.469Z,99.05
2022-11-08T17:29:49.108Z,99.10
2022-11-08T17:31:51.690Z,98.98
2022-11-08T17:33:55.828Z,98.96
2022-11-08T17:36:07.440Z,98.92
2022-11-08T17:38:10.251Z,98.96
2022-11-08T17:40:12.887Z,98.82
2022-11-08T17:42:15.617Z,99.49
2022-11-08T17:44:18.189Z,99.15
2022-11-08T17:46:20.802Z,99.55
2022-11-08T17:48:23.512Z,99.16
2022-11-08T17:50:26.115Z,99.31
2022-11-08T17:52:28.754Z,99.07
2022-11-08T17:54:31.378Z,99.32
2022-11-08T17:56:34.067Z,98.91
2022-11-08T17:58:38.105Z,98.77
2022-11-08T18:00:40.862Z,98.90
2022-11-08T18:02:43.581Z,98.85
2022-11-08T18:04:46.305Z,98.24
2022-11-08T18:06:48.974Z,97.81
2022-11-08T18:08:51.745Z,98.04
2022-11-08T18:10:55.435Z,97.49
2022-11-08T18:12:57.994Z,97.19
2022-11-08T18:15:00.591Z,97.15
2022-11-08T18:17:05.288Z,97.48
2022-11-08T18:19:07.990Z,96.79
2022-11-08T18:21:11.971Z,96.86
2022-11-08T18:23:14.746Z,96.62
2022-11-08T18:25:17.398Z,96.46
2022-11-08T18:27:20.095Z,96.25
2022-11-08T18:29:22.678Z,96.64
2022-11-08T18:31:26.493Z,96.71
2022-11-08T18:33:29.536Z,96.47
2022-11-08T18:35:32.248Z,96.42
2022-11-08T18:37:34.934Z,96.06
2022-11-08T18:39:37.579Z,96.20
2022-11-08T18:41:40.204Z,96.29
2022-11-08T18:43:42.867Z,95.54
2022-11-08T18:45:45.500Z,95.51
2022-11-08T18:47:48.401Z,95.58
2022-11-08T18:49:51.002Z,95.29
2022-11-08T18:51:53.889Z,95.03
2022-11-08T18:53:56.688Z,95.42
2022-11-08T18:55:59.426Z,95.10
2022-11-08T18:58:02.835Z,94.94
2022-11-08T19:00:06.390Z,94.71
2022-11-08T19:02:11.702Z,94.62
2022-11-08T19:04:14.450Z,94.15
2022-11-08T19:06:17.020Z,94.21
2022-11-08T19:08:25.282Z,94.43
2022-11-08T19:10:27.987Z,94.20
2022-11-08T19:12:30.613Z,93.71
2022-11-08T19:14:35.509Z,93.43
2022-11-08T19:16:38.356Z,93.36
2022-11-08T19:18:42.488Z,93.47
2022-11-08T19:20:45.111Z,93.26
2022-11-08T19:22:47.701Z,93.22
2022-11-08T19:24:50.456Z,93.07
2022-11-08T19:26:53.202Z,93.33
2022-11-08T19:28:57.420Z,92.81
2022-11-08T19:31:01.470Z,92.85
2022-11-08T19:33:04.266Z,92.18
2022-11-08T19:35:07.447Z,92.12
2022-11-08T19:37:10.078Z,91.72
2022-11-08T19:39:13.304Z,91.65
2022-11-08T19:41:19.049Z,91.22
2022-11-08T19:43:21.885Z,91.07
2022-11-08T19:45:25.442Z,90.98
2022-11-08T19:47:28.258Z,91.04
2022-11-08T19:49:31.087Z,90.79
2022-11-08T19:51:34.907Z,90.62
2022-11-08T19:53:37.625Z,90.97
2022-11-08T19:55:40.300Z,90.39
2022-11-08T19:57:43.020Z,90.32
2022-11-08T19:59:46.184Z,90.06
2022-11-08T20:01:48.910Z,89.94
2022-11-08T20:03:51.764Z,90.27
2022-11-08T20:05:55.500Z,90.48
2022-11-08T20:07:58.372Z,91.04
2022-11-08T20:10:01.081Z,91.14
2022-11-08T20:12:05.832Z,91.53
2022-11-08T20:14:10.980Z,92.21
2022-11-08T20:16:16.610Z,92.87
2022-11-08T20:18:20.598Z,92.84
2022-11-08T20:20:23.462Z,93.20
2022-11-08T20:22:26.690Z,93.60
2022-11-08T20:24:29.340Z,94.11
2022-11-08T20:26:32.074Z,94.13
2022-11-08T20:28:36.353Z,94.13
2022-11-08T20:30:44.134Z,93.96
2022-11-08T20:32:46.742Z,94.38
2022-11-08T20:34:50.744Z,94.18
2022-11-08T20:36:53.520Z,94.25
2022-11-08T20:38:59.068Z,94.01
2022-11-08T20:41:07.168Z,93.80
2022-11-08T20:43:09.828Z,94.30
2022-11-08T20:45:15.112Z,93.94
2022-11-08T20:47:19.119Z,94.37
2022-11-08T20:49:21.783Z,93.89
2022-11-08T20:51:24.464Z,94.05
2022-11-08T20:53:28.217Z,94.28
2022-11-08T20:55:31.001Z,94.08
2022-11-08T20:57:33.629Z,93.59
2022-11-08T20:59:36.401Z,93.67
2022-11-08T21:01:39.584Z,93.62
2022-11-08T21:03:43.066Z,93.61
2022-11-08T21:05:56.946Z,93.39
2022-11-08T21:08:56.135Z,93.53
2022-11-08T21:12:44.871Z,93.41
2022-11-08T21:14:47.506Z,93.38
2022-11-08T21:19:13.725Z,93.52
2022-11-08T21:21:19.394Z,93.58
2022-11-08T21:23:22.652Z,94.07
2022-11-08T21:25:25.286Z,94.48
2022-11-08T21:27:29.975Z,94.55
2022-11-08T21:29:32.820Z,94.92
2022-11-08T21:31:35.645Z,94.84
2022-11-08T21:33:39.081Z,95.55
2022-11-08T21:35:41.768Z,95.43
2022-11-08T21:37:44.480Z,96.05
2022-11-08T21:39:47.152Z,95.99
2022-11-08T21:41:49.897Z,96.26
2022-11-08T21:43:52.601Z,96.33
2022-11-08T21:45:55.271Z,96.52
2022-11-08T21:47:57.870Z,96.90
2022-11-08T21:50:00.587Z,96.88
2022-11-08T21:52:03.872Z,96.99
2022-11-08T21:54:06.747Z,97.30
2022-11-08T21:56:09.432Z,97.64
2022-11-08T21:58:12.051Z,97.80
2022-11-08T22:00:15.170Z,97.71
2022-11-08T22:02:18.581Z,98.17
2022-11-08T22:04:21.225Z,98.57
2022-11-08T22:06:24.226Z,99.25
2022-11-08T22:08:27.082Z,99.65
2022-11-08T22:10:29.709Z,99.68
2022-11-08T22:12:32.820Z,100.00
2022-11-08T22:14:35.525Z,100.00
2022-11-08T22:16:38.148Z,100.00
2022-11-08T22:21:21.763Z,100.00
2022-11-08T22:23:24.423Z,100.00
2022-11-08T22:25:27.096Z,100.00
2022-11-08T22:27:29.773Z,100.00
2022-11-08T22:29:32.524Z,100.00
2022-11-08T22:31:35.482Z,100.00
2022-11-08T22:33:38.114Z,100.00
2022-11-08T22:35:40.793Z,100.00
2022-11-08T22:37:43.469Z,100.00
2022-11-08T22:39:46.106Z,100.00
2022-11-08T22:41:51.069Z,100.00
2022-11-08T22:43:53.986Z,100.00
2022-11-08T22:45:56.638Z,100.00
2022-11-08T22:47:59.362Z,100.00
2022-11-08T22:50:02.099Z,100.00
2022-11-08T22:52:06.207Z,100.00
2022-11-08T22:54:09.748Z,100.00
2022-11-08T22:56:12.367Z,100.00
2022-11-08T22:58:15.138Z,100.00
2022-11-08T23:00:17.910Z,100.00
2022-11-08T23:02:20.538Z,100.00
2022-11-08T23:04:23.190Z,100.00
2022-11-08T23:06:26.074Z,100.00
2022-11-08T23:08:30.128Z,100.00
2022-11-08T23:10:32.877Z,100.00
2022-11-08T23:12:53.894Z,100.00
2022-11-08T23:15:14.905Z,100.00
2022-11-08T23:17:17.614Z,100.00
2022-11-08T23:19:41.949Z,100.00
2022-11-08T23:22:02.981Z,100.00
2022-11-08T23:24:21.580Z,100.00
2022-11-08T23:26:44.108Z,100.00
2022-11-08T23:29:05.358Z,100.00
2022-11-08T23:31:31.513Z,100.00
2022-11-08T23:33:34.213Z,100.00
2022-11-08T23:35:36.864Z,100.00
2022-11-08T23:37:40.330Z,100.00
2022-11-08T23:40:01.469Z,100.00
2022-11-08T23:42:24.600Z,100.00
2022-11-08T23:44:28.016Z,100.00
2022-11-08T23:46:30.684Z,100.00
2022-11-08T23:48:33.579Z,100.00
2022-11-08T23:50:36.190Z,100.00
2022-11-08T23:52:38.874Z,100.00
2022-11-08T23:54:41.612Z,100.00
2022-11-08T23:56:44.929Z,100.00
2022-11-08T23:58:47.627Z,100.00
